Aviation Digital Data Service (ADDS)

Output produced by METARs form (2323 UTC 18 August 2019)
found at http://www.aviationweather.gov/metar/data/
 
Forecast for: RPMZ (ZAMBOANGA (CIV/A, PH)
Text: TAF RPMZ 182300Z 1900/1924 27006KT 9999 FEW017 SCT300
Forecast period: 0000 UTC 19 August 2019 to 0000 UTC 20 August 2019
Forecast type: FROM: standard forecast or significant change
Winds: from the W (270 degrees) at 7 MPH (6 knots; 3.1 m/s)
Visibility: 6 or more miles 10+ km)
Ceiling: at least 12,000 feet AGL
Clouds: few clouds at 1700 feet AGL
scattered clouds at 30000 feet AGL
Weather: no significant weather forecast for this period
Text: TEMPO 1900/1906 25008KT FEW016CB FEW017 SCT090
Forecast period: 0000 to 0600 UTC 19 August 2019
Forecast type: TEMPORARY: The following changes expected for less than half the time period
Winds: from the WSW (250 degrees) at 9 MPH (8 knots; 4.1 m/s)
Visibility: missing
Ceiling: at least 12,000 feet AGL
Clouds: few clouds at 1600 feet AGL
few clouds at 1700 feet AGL
scattered clouds at 9000 feet AGL
Weather: no significant weather forecast for this period